Capulin Mountain National Mo, New Mexico
Current Conditions -  °F | °C
As of 5:53 AM on Sunday 23 Nov 2014 (Local Time) from KRTN Reporting Station
Clear Clear  
Wind Chill: 35°   Ceiling: Unl
Heat Index: 42°   Visibility: 10mi
Dew Point: 21°   Wind: 15mph
Humidity: 43%   Direction: 290°WNW
Pressure: 29.59"   Gusts: NA
Location:  36.7361°N, 103.978°W
Report Text: KRTN 231253Z AUTO 29013KT 10SM CLR 06/M06 A2959 RMK AO2 PK WND 29026/1213 SLP979 T00561061
Loading
Personal Weather Stations






























Interactive Weather Map New forecast layout! Learn more

10-Day Weather Forecast

Advertisements
Track Severe Weather on mobile